Time;durP1;ratioP1;P1;durP2;ratioP2;P2;SDS_P1;SDS_P2;PMS_P1;PMS_P2;Temp;Humidity;BMP_temperature;BMP_pressure;BME280_temperature;BME280_humidity;BME280_pressure;Samples;Min_cycle;Max_cycle;Signal;HPM_P1;HPM_P2
2021/10/22 00:02:30;;;;;;;16.40;4.97;;;;;;;8.57;80.76;97855.30;2187317;80;21632;-81
2021/10/22 00:05:33;;;;;;;20.10;5.33;;;;;;;8.54;80.79;97855.98;2187428;80;20948;-81
2021/10/22 00:08:34;;;;;;;18.27;5.33;;;;;;;8.54;81.00;97855.98;2187425;81;21047;-81
2021/10/22 00:11:36;;;;;;;13.10;3.60;;;;;;;8.56;80.98;97854.48;2187333;81;20977;-81
2021/10/22 00:14:37;;;;;;;15.88;4.53;;;;;;;8.58;80.97;97862.92;2187844;81;21003;-80
2021/10/22 00:17:38;;;;;;;8.35;3.25;;;;;;;8.62;81.31;97868.10;2187409;80;20955;-79
2021/10/22 00:20:39;;;;;;;8.85;2.98;;;;;;;8.64;80.98;97868.71;2192617;79;21068;-80
2021/10/22 00:23:40;;;;;;;8.73;2.37;;;;;;;8.67;81.36;97873.55;2214239;80;21608;-79
2021/10/22 00:26:41;;;;;;;5.08;2.20;;;;;;;8.72;81.20;97869.08;2214419;80;21505;-80
2021/10/22 00:29:41;;;;;;;8.70;2.47;;;;;;;8.76;81.07;97859.87;2214438;80;21033;-80
2021/10/22 00:32:43;;;;;;;4.50;1.82;;;;;;;8.80;81.47;97858.52;2214533;80;21029;-80
2021/10/22 00:35:44;;;;;;;6.25;2.00;;;;;;;8.85;80.68;97857.44;2214383;80;20993;-80
2021/10/22 00:38:44;;;;;;;6.28;2.05;;;;;;;8.92;81.25;97842.63;2214546;80;21052;-80
2021/10/22 00:41:46;;;;;;;6.50;2.70;;;;;;;8.95;80.86;97842.24;2213999;80;20985;-80
2021/10/22 00:44:48;;;;;;;3.22;1.52;;;;;;;8.96;80.76;97863.94;2214438;80;21030;-80
2021/10/22 00:47:50;;;;;;;3.83;1.45;;;;;;;8.95;81.10;97858.41;2214330;80;21039;-81
2021/10/22 00:50:50;;;;;;;8.60;1.75;;;;;;;8.96;80.75;97866.08;2214358;80;21093;-81
2021/10/22 00:53:51;;;;;;;4.20;1.57;;;;;;;8.98;80.79;97871.10;2215112;80;20962;-81
2021/10/22 00:56:52;;;;;;;4.80;2.67;;;;;;;8.99;80.73;97880.55;2214312;80;21005;-81
2021/10/22 00:59:53;;;;;;;4.65;1.82;;;;;;;8.98;81.02;97890.19;2214333;80;21050;-81
2021/10/22 01:02:54;;;;;;;4.17;1.30;;;;;;;9.00;81.16;97903.86;2214446;80;21053;-82
2021/10/22 01:05:55;;;;;;;4.05;1.92;;;;;;;9.06;81.16;97914.05;2214308;80;20990;-81
2021/10/22 01:08:56;;;;;;;4.35;1.75;;;;;;;9.07;80.92;97913.05;2214420;80;21060;-81
2021/10/22 01:11:56;;;;;;;3.67;1.45;;;;;;;9.13;80.89;97904.44;2214423;80;21077;-81
2021/10/22 01:14:57;;;;;;;3.62;1.37;;;;;;;9.18;81.11;97916.45;2214349;80;20981;-81
2021/10/22 01:18:00;;;;;;;2.22;1.40;;;;;;;9.26;81.19;97930.67;2214423;80;21029;-80
2021/10/22 01:21:01;;;;;;;3.70;1.70;;;;;;;9.31;80.91;97932.70;2221070;79;21060;-81
2021/10/22 01:24:03;;;;;;;3.25;1.67;;;;;;;9.37;83.08;97945.82;2243933;79;20926;-81
2021/10/22 01:27:03;;;;;;;0.90;0.82;;;;;;;9.54;82.71;97948.16;2243936;79;20969;-81
2021/10/22 01:30:04;;;;;;;1.82;1.15;;;;;;;9.70;83.36;97949.16;2243909;79;21025;-81
2021/10/22 01:33:05;;;;;;;2.60;0.88;;;;;;;9.86;81.39;97957.98;2243733;79;21037;-81
2021/10/22 01:36:06;;;;;;;3.50;0.78;;;;;;;9.89;81.73;97954.20;2243673;79;21358;-81
2021/10/22 01:39:07;;;;;;;1.37;0.78;;;;;;;9.89;81.23;97956.31;2243841;79;21540;-82
2021/10/22 01:42:07;;;;;;;3.02;0.60;;;;;;;9.89;81.50;97965.97;2243555;79;21057;-82
2021/10/22 01:45:08;;;;;;;2.92;0.70;;;;;;;9.83;81.72;97971.95;2243676;79;20997;-82
2021/10/22 01:48:10;;;;;;;0.53;0.47;;;;;;;9.80;81.69;97974.96;2243807;79;20935;-82
2021/10/22 01:51:11;;;;;;;1.62;0.60;;;;;;;9.70;82.13;97979.23;2243759;79;21464;-81
2021/10/22 01:54:12;;;;;;;1.95;0.90;;;;;;;9.58;82.57;97982.05;2243645;79;20985;-82
2021/10/22 01:57:13;;;;;;;1.62;0.80;;;;;;;9.45;83.09;97975.42;2243806;79;21020;-82
2021/10/22 02:00:14;;;;;;;0.50;0.45;;;;;;;9.31;81.74;97993.59;2243865;79;21013;-80
2021/10/22 02:03:14;;;;;;;2.92;1.15;;;;;;;9.29;82.19;98006.55;2244077;79;21005;-80
2021/10/22 02:06:15;;;;;;;1.22;0.60;;;;;;;9.21;80.51;98001.45;2244099;79;20970;-80
2021/10/22 02:09:16;;;;;;;0.80;0.40;;;;;;;9.15;81.61;97998.30;2244088;79;21050;-80
2021/10/22 02:12:17;;;;;;;5.45;0.75;;;;;;;9.08;80.42;98012.59;2243948;79;21022;-80
2021/10/22 02:15:18;;;;;;;1.30;0.57;;;;;;;8.99;81.35;98021.05;2244063;79;21057;-80
2021/10/22 02:18:19;;;;;;;5.92;0.53;;;;;;;8.89;81.59;98022.36;2244044;79;21097;-81
2021/10/22 02:21:20;;;;;;;0.90;0.65;;;;;;;8.77;82.17;98015.48;2243962;79;22122;-82
2021/10/22 02:24:21;;;;;;;1.62;0.50;;;;;;;8.74;84.06;98028.41;2243607;79;21132;-81
2021/10/22 02:27:22;;;;;;;4.10;0.90;;;;;;;8.63;83.63;98030.20;2244090;79;20986;-81
2021/10/22 02:30:22;;;;;;;4.53;0.90;;;;;;;8.54;83.35;98047.77;2243969;79;20962;-81
2021/10/22 02:33:23;;;;;;;2.58;0.60;;;;;;;8.49;82.64;98057.92;2244080;79;20974;-81
2021/10/22 02:36:24;;;;;;;3.15;0.70;;;;;;;8.39;82.64;98052.67;2243937;79;21012;-81
2021/10/22 02:39:25;;;;;;;1.70;0.78;;;;;;;8.31;82.36;98058.77;2244066;79;21072;-81
2021/10/22 02:42:26;;;;;;;7.12;0.70;;;;;;;8.27;81.29;98067.45;2243970;79;21549;-81
2021/10/22 02:45:27;;;;;;;2.08;0.72;;;;;;;8.18;81.23;98077.66;2243919;79;21051;-81
2021/10/22 02:48:28;;;;;;;1.95;0.78;;;;;;;8.12;80.83;98070.55;2243706;79;21072;-81
2021/10/22 02:51:29;;;;;;;3.72;0.93;;;;;;;8.10;80.05;98080.84;2243874;79;21483;-81
2021/10/22 02:54:30;;;;;;;0.85;0.85;;;;;;;8.06;81.12;98093.94;2243981;79;21107;-81
2021/10/22 02:57:31;;;;;;;3.83;0.90;;;;;;;8.02;80.82;98105.20;2243711;79;21017;-81
2021/10/22 03:00:31;;;;;;;6.80;1.15;;;;;;;7.96;79.67;98099.41;2243955;79;21046;-81
2021/10/22 03:03:32;;;;;;;4.35;2.08;;;;;;;7.90;80.17;98113.95;2244055;79;21009;-81
2021/10/22 03:06:33;;;;;;;4.75;0.90;;;;;;;7.86;80.21;98118.37;2243930;79;20961;-81
2021/10/22 03:09:35;;;;;;;9.10;1.80;;;;;;;7.82;79.63;98127.55;2243936;79;21001;-81
2021/10/22 03:12:36;;;;;;;4.15;0.78;;;;;;;7.71;79.90;98132.69;2243876;79;21066;-81
2021/10/22 03:15:37;;;;;;;10.90;1.10;;;;;;;7.66;80.72;98135.80;2243981;79;21477;-81
2021/10/22 03:18:38;;;;;;;4.20;1.42;;;;;;;7.61;79.87;98139.45;2244013;79;21009;-80
2021/10/22 03:21:39;;;;;;;6.35;1.30;;;;;;;7.56;81.13;98157.88;2243842;79;21141;-81
2021/10/22 03:24:39;;;;;;;1.85;1.00;;;;;;;7.57;80.39;98155.58;2243981;79;20958;-81
2021/10/22 03:27:42;;;;;;;2.47;0.82;;;;;;;7.54;80.04;98148.94;2243733;79;21048;-81
2021/10/22 03:30:43;;;;;;;5.78;1.57;;;;;;;7.53;80.34;98155.63;2243606;79;21016;-80
2021/10/22 03:33:44;;;;;;;5.20;1.05;;;;;;;7.45;80.67;98157.79;2243432;79;21113;-81
2021/10/22 03:36:45;;;;;;;3.83;1.42;;;;;;;7.47;83.81;98164.94;2243570;79;20994;-81
2021/10/22 03:39:46;;;;;;;4.25;1.05;;;;;;;7.43;81.24;98157.66;2243752;79;20978;-81
2021/10/22 03:42:48;;;;;;;6.80;1.40;;;;;;;7.36;81.13;98164.03;2243861;79;20994;-81
2021/10/22 03:45:48;;;;;;;5.22;1.45;;;;;;;7.26;81.75;98174.67;2244003;79;20993;-81
2021/10/22 03:48:49;;;;;;;5.28;1.70;;;;;;;7.18;82.00;98173.91;2243976;79;20927;-82
2021/10/22 03:51:51;;;;;;;10.68;1.75;;;;;;;7.10;82.52;98172.14;2243963;79;21530;-81
2021/10/22 03:54:51;;;;;;;2.95;0.98;;;;;;;7.00;82.47;98182.77;2243873;79;20978;-82
2021/10/22 03:57:52;;;;;;;7.03;1.20;;;;;;;6.95;83.63;98160.36;2243692;79;20993;-81
2021/10/22 04:00:53;;;;;;;5.35;1.10;;;;;;;6.91;83.92;98182.97;2244129;79;21458;-81
2021/10/22 04:03:54;;;;;;;2.98;1.40;;;;;;;6.90;85.35;98177.45;2243980;79;21068;-81
2021/10/22 04:06:56;;;;;;;5.83;1.37;;;;;;;6.88;83.30;98172.91;2243955;79;20989;-81
2021/10/22 04:09:57;;;;;;;2.77;1.37;;;;;;;6.85;84.96;98164.92;2243944;79;20962;-82
2021/10/22 04:12:58;;;;;;;5.92;1.30;;;;;;;6.82;84.88;98162.19;2244104;79;21025;-81
2021/10/22 04:15:59;;;;;;;8.28;1.42;;;;;;;6.80;84.48;98180.25;2243951;79;21085;-81
2021/10/22 04:19:00;;;;;;;3.58;2.35;;;;;;;6.81;84.95;98173.57;2243928;79;20939;-81
2021/10/22 04:22:00;;;;;;;4.60;1.20;;;;;;;6.77;85.05;98180.59;2244946;79;21055;-81
2021/10/22 04:25:01;;;;;;;7.28;1.15;;;;;;;6.70;85.23;98185.66;2247705;79;20977;-82
2021/10/22 04:28:02;;;;;;;2.52;0.98;;;;;;;6.62;85.77;98186.97;2247962;79;21604;-82
2021/10/22 04:31:03;;;;;;;1.60;1.45;;;;;;;6.55;87.16;98185.52;2247705;79;20979;-81
2021/10/22 04:34:04;;;;;;;12.53;2.12;;;;;;;6.54;87.50;98185.69;2247789;79;22216;-81
2021/10/22 04:40:33;;;;;;;3.45;1.22;;;;;;;6.53;87.11;98197.08;2247804;79;20986;-81
2021/10/22 04:43:37;;;;;;;5.33;1.40;;;;;;;6.46;87.19;98202.13;2247442;79;21033;-80
2021/10/22 04:46:38;;;;;;;5.80;1.37;;;;;;;6.39;87.74;98207.66;2247712;79;21061;-81
2021/10/22 04:49:39;;;;;;;6.20;1.72;;;;;;;6.31;89.05;98211.59;2247760;79;21515;-81
2021/10/22 04:52:40;;;;;;;3.25;1.67;;;;;;;6.31;88.44;98214.66;2247934;79;20962;-81
2021/10/22 04:55:40;;;;;;;6.72;2.20;;;;;;;6.25;89.74;98211.75;2247769;79;21048;-81
2021/10/22 04:58:45;;;;;;;5.97;1.50;;;;;;;6.22;88.72;98202.18;2247791;79;21042;-81
2021/10/22 05:01:44;;;;;;;7.12;1.75;;;;;;;6.20;90.60;98211.91;2247627;79;21077;-81
2021/10/22 05:04:45;;;;;;;4.15;1.50;;;;;;;6.17;88.69;98219.55;2247903;79;21006;-88
2021/10/22 05:07:45;;;;;;;3.40;1.20;;;;;;;6.16;88.95;98220.53;2247909;79;20974;-81
2021/10/22 05:10:46;;;;;;;4.75;1.82;;;;;;;6.10;89.77;98221.17;2247709;79;20998;-81
2021/10/22 05:13:49;;;;;;;7.53;2.45;;;;;;;6.08;89.67;98218.42;2249197;79;20954;-82
2021/10/22 05:16:50;;;;;;;6.70;1.45;;;;;;;6.05;89.61;98219.56;2247714;79;21021;-82
2021/10/22 05:19:50;;;;;;;5.60;1.65;;;;;;;6.07;89.46;98234.50;2247350;79;21057;-82
2021/10/22 05:22:51;;;;;;;2.90;1.32;;;;;;;6.04;89.30;98223.14;2216507;79;21470;-82
2021/10/22 05:25:52;;;;;;;3.77;1.12;;;;;;;6.03;89.20;98233.67;2187158;81;21552;-81
2021/10/22 05:28:53;;;;;;;4.83;1.42;;;;;;;5.99;89.35;98241.80;2187184;81;21459;-81
2021/10/22 05:31:54;;;;;;;2.52;1.20;;;;;;;5.96;90.04;98236.12;2186999;80;21289;-81
2021/10/22 05:34:55;;;;;;;4.50;1.27;;;;;;;5.96;89.19;98244.73;2186985;81;21017;-82
2021/10/22 05:37:55;;;;;;;5.45;1.62;;;;;;;5.99;89.18;98247.49;2187356;81;20974;-82
2021/10/22 05:40:59;;;;;;;6.45;1.70;;;;;;;6.01;89.40;98259.83;2187389;80;20986;-82
2021/10/22 05:44:01;;;;;;;7.28;1.87;;;;;;;6.05;89.18;98265.05;2186973;81;21049;-82
2021/10/22 05:47:01;;;;;;;4.85;2.20;;;;;;;6.09;89.40;98268.94;2187631;81;20931;-82
2021/10/22 05:50:04;;;;;;;6.40;2.05;;;;;;;6.13;88.87;98281.95;2187420;81;21025;-83
2021/10/22 05:53:07;;;;;;;5.47;1.98;;;;;;;6.14;88.79;98291.38;2187900;81;21054;-82
2021/10/22 05:56:08;;;;;;;3.80;1.55;;;;;;;6.16;88.49;98300.30;2187490;80;21037;-82
2021/10/22 05:59:09;;;;;;;7.37;1.57;;;;;;;6.17;88.65;98309.23;2187403;81;20990;-82
2021/10/22 06:02:10;;;;;;;3.80;1.30;;;;;;;6.19;88.34;98307.28;2187555;81;21006;-82
2021/10/22 06:05:10;;;;;;;3.50;1.55;;;;;;;6.25;87.99;98326.64;2187402;81;21061;-82
2021/10/22 06:08:11;;;;;;;12.53;1.77;;;;;;;6.28;87.87;98331.02;2187262;80;20954;-80
2021/10/22 06:11:12;;;;;;;11.90;2.42;;;;;;;6.35;88.24;98332.98;2187265;80;20990;-81
2021/10/22 06:14:13;;;;;;;11.83;2.52;;;;;;;6.41;87.84;98325.35;2187192;81;20943;-82
2021/10/22 06:17:14;;;;;;;10.98;2.77;;;;;;;6.46;88.74;98313.95;2187331;81;21281;-82
2021/10/22 06:20:26;;;;;;;3.98;1.87;;;;;;;6.53;87.06;98312.34;2187203;81;21017;-82
2021/10/22 06:26:39;;;;;;;6.60;1.40;;;;;;;6.62;86.78;98328.76;2187555;81;21062;-82
2021/10/22 06:29:40;;;;;;;11.55;1.85;;;;;;;6.70;86.97;98323.55;2187466;81;20939;-81
2021/10/22 06:32:41;;;;;;;9.13;3.30;;;;;;;6.78;86.63;98337.86;2187309;81;21042;-81
2021/10/22 06:35:44;;;;;;;4.10;1.67;;;;;;;6.84;86.28;98341.08;2187228;81;21019;-81
2021/10/22 06:38:44;;;;;;;5.25;2.27;;;;;;;6.90;85.91;98338.32;2187341;81;21017;-81
2021/10/22 06:41:45;;;;;;;5.20;1.80;;;;;;;6.98;85.93;98341.41;2187248;81;21546;-81
2021/10/22 06:44:46;;;;;;;6.70;2.25;;;;;;;7.04;85.52;98342.87;2187349;81;21045;-81
2021/10/22 06:47:48;;;;;;;6.00;1.87;;;;;;;7.08;85.53;98336.83;2187402;81;20995;-81
2021/10/22 06:50:48;;;;;;;8.30;2.72;;;;;;;7.13;84.88;98343.62;2187356;81;21050;-81
2021/10/22 06:53:49;;;;;;;4.10;2.17;;;;;;;7.19;85.26;98344.77;2187161;81;21032;-80
2021/10/22 06:56:50;;;;;;;7.08;2.17;;;;;;;7.23;84.81;98349.49;2187349;81;21031;-81
2021/10/22 06:59:51;;;;;;;6.25;2.08;;;;;;;7.28;84.98;98350.28;2187354;80;20955;-81
2021/10/22 07:02:52;;;;;;;7.62;1.80;;;;;;;7.33;85.09;98360.53;2187500;81;21002;-79
2021/10/22 07:08:58;;;;;;;6.15;2.10;;;;;;;7.45;83.78;98363.58;2187480;81;21035;-81
2021/10/22 07:11:59;;;;;;;8.53;2.55;;;;;;;7.50;83.98;98363.06;2187506;81;21058;-78
2021/10/22 07:15:04;;;;;;;8.30;2.67;;;;;;;7.57;83.69;98368.73;2187335;80;21098;-78
2021/10/22 07:18:04;;;;;;;6.05;2.20;;;;;;;7.66;83.57;98386.45;2187086;81;21593;-84
2021/10/22 07:21:05;;;;;;;5.95;2.10;;;;;;;7.74;83.91;98377.80;2187365;81;21066;-79
2021/10/22 07:24:13;;;;;;;4.80;2.58;;;;;;;7.85;84.12;98388.66;2228173;79;21017;-83
2021/10/22 07:27:09;;;;;;;6.75;1.82;;;;;;;7.97;83.13;98387.81;2242860;79;21084;-80
2021/10/22 07:30:10;;;;;;;6.60;2.35;;;;;;;8.08;83.19;98392.63;2243764;79;20966;-83
2021/10/22 07:33:11;;;;;;;7.33;2.33;;;;;;;8.23;82.10;98401.85;2243841;79;20973;-81
2021/10/22 07:36:13;;;;;;;9.78;2.10;;;;;;;8.23;80.00;98394.03;2243982;79;21069;-80
2021/10/22 07:39:14;;;;;;;7.67;1.47;;;;;;;8.24;80.61;98401.67;2243783;79;21005;-83
2021/10/22 07:45:18;;;;;;;7.85;1.90;;;;;;;8.26;79.53;98402.31;2097380;84;21021;-84
2021/10/22 07:48:20;;;;;;;9.08;2.10;;;;;;;8.33;78.96;98403.74;2096769;85;21600;-83
2021/10/22 07:51:21;;;;;;;8.05;1.92;;;;;;;8.38;79.22;98401.45;2097215;85;21022;-84
2021/10/22 07:54:22;;;;;;;7.58;2.27;;;;;;;8.43;77.88;98390.02;2097078;85;21001;-82
2021/10/22 07:57:23;;;;;;;9.45;1.82;;;;;;;8.44;77.03;98407.28;2097309;85;21076;-85
2021/10/22 08:00:25;;;;;;;5.65;2.00;;;;;;;8.50;78.17;98418.34;2097362;85;21035;-85
2021/10/22 08:03:26;;;;;;;9.55;2.27;;;;;;;8.59;77.62;98410.44;2097349;85;21631;-84
2021/10/22 08:06:27;;;;;;;5.33;1.95;;;;;;;8.63;77.16;98417.76;2097219;84;21012;-85
2021/10/22 08:09:31;;;;;;;9.50;2.20;;;;;;;8.68;77.05;98421.13;2097029;85;21077;-83
2021/10/22 08:12:31;;;;;;;7.25;3.77;;;;;;;8.69;76.43;98423.59;2096924;83;21096;-82
2021/10/22 08:15:32;;;;;;;7.65;1.72;;;;;;;8.71;75.87;98420.31;2097081;85;21560;-82
2021/10/22 08:18:33;;;;;;;2.98;1.87;;;;;;;8.74;76.08;98434.31;2097210;85;21623;-82
2021/10/22 08:21:56;;;;;;;6.70;2.27;;;;;;;8.78;75.54;98432.19;2097327;85;21016;-82
2021/10/22 08:24:37;;;;;;;6.40;2.15;;;;;;;8.83;75.72;98423.31;2117572;82;21083;-82
2021/10/22 08:27:38;;;;;;;10.35;2.42;;;;;;;8.89;75.09;98415.28;2122380;84;21180;-87
2021/10/22 08:30:40;;;;;;;6.72;1.92;;;;;;;8.88;74.52;98429.33;2122137;84;20971;-84
2021/10/22 08:33:41;;;;;;;7.10;2.05;;;;;;;8.95;73.78;98427.62;2122296;84;21071;-84
2021/10/22 08:36:42;;;;;;;4.97;1.87;;;;;;;8.98;74.16;98414.23;2122314;84;21067;-83
2021/10/22 08:39:46;;;;;;;6.67;1.65;;;;;;;9.00;73.92;98427.42;2122557;84;20984;-83
2021/10/22 08:42:47;;;;;;;4.80;1.70;;;;;;;9.04;73.03;98424.77;2122487;83;21003;-84
2021/10/22 08:45:48;;;;;;;6.22;1.70;;;;;;;9.07;72.90;98428.34;2122263;84;21031;-82
2021/10/22 08:48:49;;;;;;;4.37;2.10;;;;;;;9.11;72.79;98436.63;2212385;79;21561;-81
2021/10/22 08:51:53;;;;;;;5.58;1.57;;;;;;;9.16;72.54;98439.53;2254461;79;21046;-82
2021/10/22 08:54:54;;;;;;;6.40;1.32;;;;;;;9.20;71.62;98438.67;2254530;79;21571;-83
2021/10/22 08:57:56;;;;;;;3.42;1.00;;;;;;;9.26;71.42;98436.17;2254484;79;21038;-82
2021/10/22 09:00:57;;;;;;;6.22;1.50;;;;;;;9.32;71.84;98429.41;2254740;79;20996;-82
2021/10/22 09:03:58;;;;;;;4.65;1.45;;;;;;;9.39;70.70;98429.02;2254688;79;21529;-82
2021/10/22 09:07:02;;;;;;;9.30;3.10;;;;;;;9.49;71.52;98436.59;2254597;79;20994;-82
2021/10/22 09:10:02;;;;;;;6.15;1.77;;;;;;;9.55;70.61;98437.20;2254301;79;21576;-83
2021/10/22 09:13:03;;;;;;;3.37;1.25;;;;;;;9.56;70.36;98438.32;2254720;79;21029;-83
2021/10/22 09:16:05;;;;;;;4.97;1.00;;;;;;;9.63;70.12;98427.97;2254755;79;21024;-83
2021/10/22 09:19:06;;;;;;;10.18;1.60;;;;;;;9.67;68.94;98430.52;2254706;79;21017;-83
2021/10/22 09:22:07;;;;;;;7.42;1.47;;;;;;;9.68;68.36;98426.91;2254815;79;21049;-83
2021/10/22 09:25:08;;;;;;;5.03;1.40;;;;;;;9.69;67.90;98438.98;2244750;79;22179;-82
2021/10/22 09:28:12;;;;;;;4.20;1.00;;;;;;;9.72;67.11;98426.88;2243755;79;21493;-82
2021/10/22 09:31:12;;;;;;;8.08;1.47;;;;;;;9.76;67.31;98437.28;2243677;79;21042;-82
2021/10/22 09:34:13;;;;;;;4.45;1.25;;;;;;;9.84;67.15;98427.23;2243875;79;21022;-81
2021/10/22 09:37:14;;;;;;;3.92;1.12;;;;;;;9.93;66.90;98433.98;2244052;79;21021;-80
2021/10/22 09:40:15;;;;;;;5.50;1.42;;;;;;;9.97;67.03;98433.45;2243842;79;21480;-83
2021/10/22 09:43:17;;;;;;;6.42;1.20;;;;;;;10.02;65.71;98430.28;2243853;79;21108;-84
2021/10/22 09:46:18;;;;;;;4.28;1.27;;;;;;;10.10;64.89;98431.48;2243671;79;21058;-83
2021/10/22 09:49:19;;;;;;;8.95;1.42;;;;;;;10.10;62.06;98428.06;2243697;79;20973;-82
2021/10/22 09:52:21;;;;;;;2.90;0.70;;;;;;;10.17;63.01;98426.34;2243765;79;21045;-83
2021/10/22 09:55:22;;;;;;;3.30;1.22;;;;;;;10.21;63.02;98425.77;2243846;79;21078;-83
2021/10/22 09:58:24;;;;;;;7.85;1.07;;;;;;;10.28;61.14;98413.30;2243718;79;21494;-85
2021/10/22 10:01:25;;;;;;;5.50;1.70;;;;;;;10.35;60.91;98420.23;2243776;79;21045;-85
2021/10/22 10:04:26;;;;;;;4.47;1.15;;;;;;;10.40;61.32;98413.94;2243550;79;20989;-85
2021/10/22 10:07:27;;;;;;;6.67;1.40;;;;;;;10.46;61.06;98411.08;2243654;79;21023;-85
2021/10/22 10:10:28;;;;;;;4.05;1.40;;;;;;;10.56;60.33;98411.58;2243677;79;20998;-85
2021/10/22 10:13:30;;;;;;;4.25;1.37;;;;;;;10.69;60.24;98412.20;2243562;79;21002;-85
2021/10/22 10:16:31;;;;;;;7.03;1.05;;;;;;;10.82;60.08;98409.22;2244071;79;20990;-84
2021/10/22 10:19:32;;;;;;;4.08;1.20;;;;;;;11.01;59.89;98399.09;2244151;79;21073;-86
2021/10/22 10:22:33;;;;;;;3.85;1.60;;;;;;;11.27;58.09;98409.77;2243918;79;21557;-85
2021/10/22 10:25:34;;;;;;;5.70;1.72;;;;;;;11.53;58.54;98401.27;2243489;79;21033;-85
2021/10/22 10:28:36;;;;;;;6.67;2.20;;;;;;;12.12;58.02;98394.70;2243827;79;20942;-85
2021/10/22 10:31:37;;;;;;;3.35;1.37;;;;;;;12.12;58.02;98394.70;2243942;79;21002;-84
2021/10/22 10:34:38;;;;;;;8.03;2.35;;;;;;;12.58;57.35;98394.81;2244029;79;21031;-84
2021/10/22 10:37:40;;;;;;;6.83;1.47;;;;;;;12.58;57.35;98394.81;2244145;79;20953;-84
2021/10/22 10:40:41;;;;;;;3.22;1.45;;;;;;;12.73;56.13;98384.13;2244014;79;21044;-85
2021/10/22 10:43:43;;;;;;;5.83;2.17;;;;;;;12.79;51.94;98383.31;2243852;79;21038;-85
2021/10/22 10:46:44;;;;;;;5.08;1.37;;;;;;;12.84;52.10;98374.84;2243787;79;21069;-85
2021/10/22 10:49:45;;;;;;;3.87;1.42;;;;;;;12.86;53.62;98369.67;2243995;79;21017;-85
2021/10/22 10:52:46;;;;;;;3.75;1.30;;;;;;;12.87;51.90;98367.34;2244033;79;21057;-85
2021/10/22 10:55:47;;;;;;;6.33;2.22;;;;;;;12.90;52.48;98363.53;2243882;79;21078;-85
2021/10/22 10:58:48;;;;;;;3.65;1.70;;;;;;;12.86;52.53;98340.77;2244027;79;20994;-85
2021/10/22 11:01:49;;;;;;;7.50;1.80;;;;;;;12.84;50.28;98355.94;2244001;79;21550;-85
2021/10/22 11:04:50;;;;;;;3.33;0.90;;;;;;;12.71;50.74;98354.61;2243904;79;21061;-86
2021/10/22 11:07:51;;;;;;;5.22;1.10;;;;;;;12.53;48.32;98349.47;2244006;79;21505;-85
2021/10/22 11:10:52;;;;;;;3.22;1.12;;;;;;;12.36;49.17;98353.48;2244106;79;21337;-85
2021/10/22 11:13:53;;;;;;;3.15;1.00;;;;;;;12.17;49.50;98356.38;2243874;79;21025;-85
2021/10/22 11:16:54;;;;;;;4.05;1.95;;;;;;;12.03;49.23;98357.83;2243814;79;21048;-85
2021/10/22 11:19:57;;;;;;;6.45;1.55;;;;;;;11.84;49.26;98353.63;2243850;79;20982;-85
2021/10/22 11:22:59;;;;;;;3.92;1.37;;;;;;;11.70;49.28;98345.36;2243948;79;22157;-85
2021/10/22 11:26:00;;;;;;;3.90;1.87;;;;;;;11.60;50.15;98337.05;2247755;79;21041;-85
2021/10/22 11:29:02;;;;;;;3.55;2.25;;;;;;;11.49;49.40;98333.67;2247841;79;21054;-86
2021/10/22 11:32:03;;;;;;;3.85;1.20;;;;;;;11.38;50.31;98334.53;2248167;79;21074;-82
2021/10/22 11:35:05;;;;;;;4.45;1.30;;;;;;;11.27;50.38;98340.32;2247546;79;21002;-82
2021/10/22 11:38:06;;;;;;;3.83;1.37;;;;;;;11.19;50.87;98331.80;2247697;79;20985;-82
2021/10/22 11:41:07;;;;;;;6.37;2.08;;;;;;;11.11;51.18;98335.38;2247750;79;21001;-81
2021/10/22 11:44:08;;;;;;;6.30;1.50;;;;;;;11.07;51.55;98332.34;2247884;79;21022;-83
2021/10/22 11:47:10;;;;;;;3.92;1.62;;;;;;;11.03;51.49;98330.28;2247758;79;21486;-81
2021/10/22 11:50:11;;;;;;;3.77;1.22;;;;;;;11.00;52.08;98328.05;2247734;79;20962;-82
2021/10/22 11:53:15;;;;;;;4.45;1.70;;;;;;;11.02;52.12;98322.11;2247690;79;20994;-82
2021/10/22 11:56:16;;;;;;;5.17;1.57;;;;;;;11.05;51.51;98328.27;2247632;79;20994;-82
2021/10/22 11:59:19;;;;;;;3.98;1.17;;;;;;;11.10;51.22;98321.47;2247653;79;20969;-83
2021/10/22 12:02:20;;;;;;;3.62;1.40;;;;;;;11.17;51.49;98325.45;2247547;79;21012;-82
2021/10/22 12:05:21;;;;;;;2.60;1.07;;;;;;;11.22;51.01;98313.06;2247302;79;21563;-82
2021/10/22 12:08:22;;;;;;;4.65;1.35;;;;;;;11.22;51.01;98313.06;2247638;79;20994;-82
2021/10/22 12:11:24;;;;;;;5.25;1.52;;;;;;;11.22;50.36;98313.87;2247966;79;21001;-82
2021/10/22 12:14:25;;;;;;;5.70;2.05;;;;;;;11.26;50.87;98311.69;2247725;79;21065;-82
2021/10/22 12:17:26;;;;;;;8.58;2.10;;;;;;;11.28;51.41;98310.98;2247781;79;21013;-82
2021/10/22 12:20:27;;;;;;;7.55;1.82;;;;;;;11.33;51.14;98313.82;2247701;79;21030;-86
2021/10/22 12:23:28;;;;;;;2.83;1.10;;;;;;;11.39;51.47;98311.23;2247336;79;21044;-83
2021/10/22 12:26:29;;;;;;;2.77;1.35;;;;;;;11.44;49.88;98308.55;2243929;79;21040;-82
2021/10/22 12:29:30;;;;;;;2.65;1.27;;;;;;;11.45;51.26;98304.92;2243974;79;20958;-82
2021/10/22 12:32:31;;;;;;;4.03;1.70;;;;;;;11.52;51.26;98308.36;2244202;79;21021;-82
2021/10/22 12:35:34;;;;;;;6.17;2.10;;;;;;;11.55;51.07;98302.25;2244039;79;20948;-81
2021/10/22 12:38:35;;;;;;;5.70;1.07;;;;;;;11.58;50.85;98302.34;2243896;79;21092;-81
2021/10/22 12:41:36;;;;;;;3.37;1.80;;;;;;;11.58;50.78;98296.60;2243851;79;21334;-85
2021/10/22 12:44:37;;;;;;;2.02;0.93;;;;;;;11.54;49.30;98291.45;2221708;79;20978;-88
2021/10/22 12:47:38;;;;;;;1.75;0.80;;;;;;;11.49;49.08;98291.22;2243853;79;21002;-85
2021/10/22 12:50:39;;;;;;;1.92;0.88;;;;;;;11.43;48.37;98284.63;2244066;79;21506;-84
2021/10/22 12:53:42;;;;;;;6.17;1.70;;;;;;;11.35;47.45;98277.77;2244326;79;21076;-82
2021/10/22 12:56:43;;;;;;;5.42;1.25;;;;;;;11.33;48.32;98292.34;2243803;79;21101;-84
2021/10/22 12:59:44;;;;;;;1.17;0.70;;;;;;;11.31;47.16;98283.07;2243983;79;21011;-84
2021/10/22 13:02:44;;;;;;;3.33;0.72;;;;;;;11.27;46.98;98277.92;2243980;79;21299;-88
2021/10/22 13:05:46;;;;;;;1.98;0.88;;;;;;;11.26;47.23;98290.22;2243550;79;21001;-92
2021/10/22 13:08:55;;;;;;;3.35;0.95;;;;;;;11.23;47.35;98286.66;2243938;79;21042;-86
2021/10/22 13:21:30;;;;;;;6.65;1.17;;;;;;;11.18;46.33;98271.23;2097537;85;21488;-85
2021/10/22 13:24:31;;;;;;;2.70;1.20;;;;;;;11.19;47.01;98286.75;2097036;83;21013;-85
2021/10/22 13:27:33;;;;;;;6.85;1.92;;;;;;;11.19;47.04;98287.25;2097108;85;21642;-83
2021/10/22 13:30:55;;;;;;;3.05;0.75;;;;;;;11.17;46.22;98275.66;2097657;84;21558;-85
2021/10/22 13:33:39;;;;;;;4.22;1.25;;;;;;;11.14;46.09;98271.28;2095119;85;21523;-84
2021/10/22 13:36:40;;;;;;;2.47;0.80;;;;;;;11.13;46.36;98275.72;2097288;85;21001;-87
2021/10/22 13:39:41;;;;;;;6.12;1.95;;;;;;;11.14;46.32;98263.42;2097119;85;21028;-86
2021/10/22 13:42:42;;;;;;;3.67;1.15;;;;;;;11.11;47.04;98262.81;2097257;85;21028;-84
2021/10/22 13:45:42;;;;;;;6.15;1.70;;;;;;;11.14;47.01;98255.56;2097056;84;21068;-86
2021/10/22 13:48:43;;;;;;;2.85;0.88;;;;;;;11.14;47.97;98259.50;2097181;84;21013;-83
2021/10/22 13:51:44;;;;;;;4.53;1.62;;;;;;;11.09;47.57;98267.45;2149803;80;21001;-83
2021/10/22 13:54:45;;;;;;;5.10;1.57;;;;;;;11.05;50.02;98260.16;2231115;79;21057;-84
2021/10/22 13:57:49;;;;;;;3.33;1.10;;;;;;;11.04;49.07;98255.92;2231336;79;21040;-83
2021/10/22 14:00:49;;;;;;;6.83;1.20;;;;;;;11.03;48.45;98253.00;2231363;79;21070;-82
2021/10/22 14:03:50;;;;;;;3.17;0.93;;;;;;;11.05;48.73;98258.84;2231650;79;21507;-83
2021/10/22 14:06:51;;;;;;;2.00;1.00;;;;;;;11.05;48.74;98271.94;2231614;80;21002;-85
2021/10/22 14:09:54;;;;;;;1.92;0.93;;;;;;;11.00;48.63;98252.89;2231642;79;21031;-83
2021/10/22 14:13:04;;;;;;;2.85;0.85;;;;;;;11.01;48.46;98261.55;2231504;79;21219;-83
2021/10/22 14:32:04;;;;;;;3.90;1.80;;;;;;;11.13;48.40;98261.31;2166184;81;20962;-80
2021/10/22 14:35:07;;;;;;;4.90;2.17;;;;;;;11.08;48.97;98262.41;2187408;81;21144;-84
2021/10/22 14:38:07;;;;;;;5.03;2.50;;;;;;;11.03;49.12;98259.55;2187333;80;20995;-87
2021/10/22 14:41:08;;;;;;;6.55;2.92;;;;;;;10.91;48.87;98261.91;2187857;81;21029;-87
2021/10/22 14:44:18;;;;;;;8.43;3.75;;;;;;;10.78;49.23;98261.30;2187864;81;20994;-83
2021/10/22 14:47:20;;;;;;;4.33;2.17;;;;;;;10.68;49.37;98255.59;2186352;81;20947;-85
2021/10/22 14:50:19;;;;;;;7.72;1.82;;;;;;;10.60;49.53;98254.92;2186515;81;20991;-79
2021/10/22 14:53:34;;;;;;;5.90;2.10;;;;;;;10.51;49.72;98260.33;2187482;81;20967;-83
2021/10/22 14:56:25;;;;;;;7.83;3.75;;;;;;;10.48;52.63;98256.77;2185646;81;21113;-82
2021/10/22 14:59:27;;;;;;;6.00;2.05;;;;;;;10.49;50.39;98245.29;2187603;81;21455;-82